Larsen Bay, AK (99624)

4:55 AM AKST on February 21, 2017 (GMT -0900)
Akhiok AP, Akhiok, AK | | Change Station

Elev 43 ft 56.94 °N, 154.18 °W | Updated 9 minutes ago

Partly Cloudy
Partly Cloudy
19 °F
Feels Like 9 °F
N
9
Wind Variable Wind from NNE

Today
High -- | Low -- °F
--% Chance of Precip.
Yesterday
High -- | Low -- °F
Precip. -- in
Pressure 30.05 in
Visibility -9999.0 miles
Clouds Mostly Cloudy 2700 ft
Overcast 3500 ft
Windchill 9 °F
Dew Point 12 °F
Humidity 74%
Rainfall 0.00 in
Snow Depth Not available.
8:29 AM 6:30 PM
Waning Crescent, 25% visible
SPECI PAKH 211346Z AUTO 03008KT BKN027 OVC035 M07/M11 A3005 RMK AO2 PWINO FZRANO $
Pressure 30.05 in
Visibility -9999.0 miles
Clouds Mostly Cloudy 2700 ft
Overcast 3500 ft
Windchill 9 °F
Dew Point 12 °F
Humidity 74%
Rainfall 0.00 in
Snow Depth Not available.
8:29 AM 6:30 PM
Waning Crescent, 25% visible
SPECI PAKH 211346Z AUTO 03008KT BKN027 OVC035 M07/M11 A3005 RMK AO2 PWINO FZRANO $

Get Your Daily Forecast Email!

Thanks for signing up!

Be on the lookout for a verification email in your inbox.

You'll start receiving the daily forecast at 8 AM.

×

10-Day Weather Forecast

Almanac

Astronomy

Feb. 21, 2017 Rise Set
Actual Time
Civil Twilight
Nautical Twilight
Astronomical Twilight
Moon
Length of Visible Light
Length of Day
Tomorrow will be .
, % of the Moon is Illuminated

Today's Extremes

State Highs State Lows

Community

WunderPhotos

Upload Photos

1,962,540 photos uploaded!

WunderBlog® & News

Nearby

Air Quality

  Air Quality AQ Index Pollutant
Not available.

Snow Depth

Station Depth Elevation

Earthquake Activity

City Distance Mag. Time & Date
Minimum magnitude displayed is 2.5.

Coastal Water Temperatures

Place Temperature

Stations

Nearby Weather Stations

Station Location Temp. Windchill Dew Point Humidity Wind Precip. Elev Updated Type
                   

Watches & Warnings

There are currently no watches in effect.